»·PEaware :: N789RN KLGB-KSDM

N789RN :: KLGB-KSDM

FLIGHT INFORMATION

Flight Status: Arrived
Operator: Privately registered:
United States
More flights under this callsign
Pilot: William N. (27524)
Aircraft: CIRRUS SR-22
(SR22)
More flights by this aircraft type
Origin: KLGB Long Beach
United States
Destination: KSDM Brown Mun
United States
More flights between these airports :: More routes between these airports
Route: SLI V64 V363 DANAH V23 MZB
File this flight plan on PilotEdge
Remarks:
Altitude:
(Current/Filed)
5,000ft
Speed:
(Current/Filed)
150kts
Departed: 12-Feb-24 08:55 PM
Arrived: 12-Feb-24 09:56 PM
Distance/Time
Traveled:
95nm/1:01
Distance/Time
To Go:
Arrived

Flight Plot

Page will automatically refresh every two minutes.


Map Options




Map Legend


Flown Route
Filed Route
Departure Airport
Arrival Airport
Navaid (VOR, NDB)
Fix

Horizontal Profiles

Position Reports

Time Latitude Longitude Heading Altitude Ground
Speed
12-Feb-24 20:30 33.821457 -118.141470 0 33ft 0kts
12-Feb-24 20:31 33.821457 -118.141470 0 33ft 0kts
12-Feb-24 20:32 33.821457 -118.141470 0 33ft 0kts
12-Feb-24 20:33 33.821457 -118.141470 0 33ft 0kts
12-Feb-24 20:34 33.821457 -118.141470 0 33ft 0kts
12-Feb-24 20:35 33.821457 -118.141470 0 33ft 0kts
12-Feb-24 20:36 33.821457 -118.141470 0 33ft 0kts
12-Feb-24 20:37 33.821457 -118.141470 0 33ft 0kts
12-Feb-24 20:38 33.821457 -118.141470 0 33ft 0kts
12-Feb-24 20:39 33.821457 -118.141470 0 33ft 0kts
12-Feb-24 20:40 33.821457 -118.141470 0 33ft 0kts
12-Feb-24 20:41 33.821457 -118.141470 0 33ft 0kts
12-Feb-24 20:42 33.821457 -118.141470 0 33ft 0kts
12-Feb-24 20:43 33.821457 -118.141470 0 33ft 0kts
12-Feb-24 20:44 33.821457 -118.141470 0 33ft 0kts
12-Feb-24 20:45 33.821457 -118.141470 0 33ft 0kts
12-Feb-24 20:47 33.821457 -118.141470 0 33ft 0kts
12-Feb-24 20:48 33.821457 -118.141470 0 33ft 0kts
12-Feb-24 20:49 33.821457 -118.141470 0 33ft 0kts
12-Feb-24 20:50 33.821784 -118.141883 274 33ft 1kts
12-Feb-24 20:51 33.821885 -118.143869 335 36ft 0kts
12-Feb-24 20:52 33.821885 -118.143869 335 36ft 0kts
12-Feb-24 20:53 33.821885 -118.143869 335 36ft 0kts
12-Feb-24 20:54 33.821953 -118.143898 350 36ft 6kts
12-Feb-24 20:55 33.822744 -118.153689 267 257ft 84kts
12-Feb-24 20:56 33.811780 -118.180547 212 1643ft 93kts
12-Feb-24 20:57 33.778017 -118.208683 206 3115ft 119kts
12-Feb-24 20:58 33.754551 -118.169081 101 4533ft 127kts
12-Feb-24 20:59 33.744099 -118.112448 103 5034ft 163kts
12-Feb-24 21:00 33.732283 -118.048371 101 4985ft 172kts
12-Feb-24 21:01 33.722246 -117.985793 102 5027ft 169kts
12-Feb-24 21:02 33.714902 -117.930152 100 4975ft 171kts
12-Feb-24 21:03 33.697920 -117.869991 139 4965ft 178kts
12-Feb-24 21:04 33.645836 -117.826952 145 5039ft 171kts
12-Feb-24 21:05 33.586257 -117.780594 145 5057ft 176kts
12-Feb-24 21:06 33.522085 -117.730507 147 5141ft 175kts
12-Feb-24 21:07 33.479015 -117.699100 144 4979ft 181kts
12-Feb-24 21:08 33.444971 -117.655185 133 5009ft 177kts
12-Feb-24 21:08 33.415458 -117.620448 137 5017ft 177kts
12-Feb-24 21:09 33.377889 -117.581225 138 4989ft 179kts
12-Feb-24 21:11 33.348530 -117.550325 137 5005ft 178kts
12-Feb-24 21:12 33.315163 -117.506561 130 5006ft 178kts
12-Feb-24 21:13 33.291022 -117.475640 132 4997ft 179kts
12-Feb-24 21:13 33.262059 -117.440356 133 5013ft 178kts
12-Feb-24 21:14 33.220843 -117.409912 158 5004ft 179kts
12-Feb-24 21:15 33.174167 -117.389615 158 5049ft 177kts
12-Feb-24 21:16 33.127373 -117.368995 161 5000ft 179kts
12-Feb-24 21:18 33.072083 -117.346593 160 5000ft 178kts
12-Feb-24 21:18 33.032824 -117.330187 160 5000ft 178kts
12-Feb-24 21:19 32.985730 -117.310448 160 5000ft 178kts
12-Feb-24 21:20 32.941225 -117.291874 160 4715ft 156kts
12-Feb-24 21:21 32.901296 -117.275149 160 4200ft 148kts
12-Feb-24 21:22 32.862134 -117.258768 160 3702ft 151kts
12-Feb-24 21:23 32.821644 -117.241861 160 3208ft 155kts
12-Feb-24 21:24 32.781394 -117.225228 167 2998ft 151kts
12-Feb-24 21:25 32.737850 -117.229241 184 3002ft 159kts
12-Feb-24 21:26 32.695400 -117.233070 183 2997ft 144kts
12-Feb-24 21:27 32.656205 -117.236538 183 2998ft 136kts
12-Feb-24 21:28 32.622801 -117.227605 116 3008ft 131kts
12-Feb-24 21:29 32.609541 -117.189053 110 2996ft 119kts
12-Feb-24 21:30 32.598281 -117.153623 109 2992ft 107kts
12-Feb-24 21:31 32.588259 -117.121999 110 2732ft 107kts
12-Feb-24 21:32 32.581534 -117.087091 95 2121ft 109kts
12-Feb-24 21:33 32.578743 -117.053051 95 1543ft 100kts
12-Feb-24 21:34 32.576176 -117.021997 95 1035ft 97kts
12-Feb-24 21:35 32.573500 -116.991662 82 1083ft 85kts
12-Feb-24 21:36 32.589238 -116.999880 294 2221ft 95kts
12-Feb-24 21:37 32.598458 -117.018908 279 3225ft 87kts
12-Feb-24 21:38 32.603970 -117.057360 276 3605ft 134kts
12-Feb-24 21:39 32.610053 -117.110040 278 3000ft 177kts
12-Feb-24 21:40 32.617076 -117.168278 277 2999ft 174kts
12-Feb-24 21:41 32.624510 -117.223450 274 2983ft 165kts
12-Feb-24 21:42 32.608665 -117.270286 234 3083ft 161kts
12-Feb-24 21:43 32.615168 -117.321370 294 3065ft 161kts
12-Feb-24 21:44 32.651468 -117.343384 13 2955ft 167kts
12-Feb-24 21:45 32.665271 -117.300902 120 2771ft 156kts
12-Feb-24 21:46 32.638851 -117.268781 123 2961ft 124kts
12-Feb-24 21:47 32.621907 -117.233899 93 2849ft 122kts
12-Feb-24 21:48 32.616310 -117.195940 110 2999ft 109kts
12-Feb-24 21:49 32.603571 -117.162790 113 3089ft 108kts
12-Feb-24 21:50 32.590880 -117.129848 112 3176ft 92kts
12-Feb-24 21:51 32.582989 -117.097624 92 2517ft 105kts
12-Feb-24 21:52 32.579779 -117.062442 90 1708ft 102kts
12-Feb-24 21:53 32.577183 -117.029236 95 1178ft 104kts
12-Feb-24 21:54 32.573884 -116.995658 89 672ft 94kts
12-Feb-24 21:55 32.572303 -116.984116 185 517ft 9kts
12-Feb-24 21:56 32.571840 -116.984159 174 517ft 0kts
12-Feb-24 21:57 32.570373 -116.984706 303 516ft 0kts

Navigation Log

Ident Type
Flight plan parsing failed, navigation log unavailable